Impacts METAR Board
IDs:

KSAN - San Diego Intl Arpt, CA, US

Updated at: 0300 UTC 17 Jul 2018
Potential Impact None Slight Moderate High
Time 16/15Z 16/16Z 16/17Z 16/18Z 16/19Z 16/20Z 16/21Z 16/22Z 16/23Z 17/00Z 17/01Z 17/02Z 17/03Z
Temp68 69 70 73 73 74 77 78 76 76 74 72 72
Dewpt63 63 63 63 64 64 64 65 64 64 64 64 64
Altim30.00 30.01 30.01 30.00 29.99 29.99 29.97 29.96 29.95 29.95 29.95 29.96 29.97
VIS10 10 10 10 10 10 10 10 10 10 10 10 10
CIG10 12 12 250 -- -- -- -- 250 130 130 17 16
CoverOVCOVCOVCBKNSCTSCTSCTSCTBKNBKNBKNBKNOVC
FltCatMVFRMVFRMVFRVFRVFRVFRVFRVFRVFRVFRVFRMVFRMVFR
WX--------------------------
WDir020018002302202202302402700230220
WSpd0 5 6 3 10 7 8 5 7 8 5 7 7
WGst-- -- -- -- -- -- -- -- -- -- -- -- --
Raw hourly METARs
KSAN 161451Z 00000KT 10SM OVC010 20/17 A3000 RMK AO2 SLP159 T02000172 51012
KSAN 161551Z 20005KT 10SM OVC012 21/17 A3001 RMK AO2 SLP162 T02060172
KSAN 161651Z 18006KT 10SM BKN012 OVC015 21/17 A3001 RMK AO2 SLP161 T02110172
KSAN 161751Z VRB03KT 10SM SCT014 BKN250 23/17 A3000 RMK AO2 SLP160 T02280172 10228 20200 50001
KSAN 161851Z 23010KT 10SM FEW014 SCT140 SCT250 23/18 A2999 RMK AO2 SLP155 T02280178
KSAN 161951Z 22007KT 10SM FEW012 SCT140 SCT250 23/18 A2999 RMK AO2 SLP154 T02330178
KSAN 162051Z 22008KT 10SM FEW012 SCT100 SCT250 25/18 A2997 RMK AO2 SLP148 T02500178 58012
KSAN 162151Z 23005KT 10SM FEW012 SCT100 SCT250 26/18 A2996 RMK AO2 SLP145 T02560183
KSAN 162251Z 24007KT 10SM FEW012 SCT130 BKN250 24/18 A2995 RMK AO2 SLP142 T02440178
KSAN 162351Z 27008KT 10SM SCT015 BKN130 BKN250 24/18 A2995 RMK AO2 SLP140 T02440178 10261 20222 56008
KSAN 170051Z VRB05KT 10SM SCT016 BKN130 BKN250 23/18 A2995 RMK AO2 SLP141 T02330178
KSAN 170151Z 23007KT 10SM BKN017 BKN140 BKN250 22/18 A2996 RMK AO2 SLP145 T02220178
KSAN 170251Z 22007KT 10SM OVC016 22/18 A2997 RMK AO2 SLP149 T02220178 53007



Page loaded:  03:59 UTC  |   08:59 PM Pacific  |   09:59 PM Mountain  |   10:59 PM Central  |   11:59 PM Eastern

 

ADVISORIES

FORECASTS

FORECASTS

OBSERVATIONS

USER TOOLS

ABOUT US